Time;durP1;ratioP1;P1;durP2;ratioP2;P2;SDS_P1;SDS_P2;PMS_P1;PMS_P2;Temp;Humidity;BMP_temperature;BMP_pressure;BME280_temperature;BME280_humidity;BME280_pressure;Samples;Min_cycle;Max_cycle;Signal;HPM_P1;HPM_P2
2022/04/21 00:01:35;;;;;;;115.90;105.55;;;12.10;50.10;;;;;;5135454;27;20051;-75
2022/04/21 00:04:03;;;;;;;116.75;106.30;;;12.20;50.20;;;;;;5151418;27;20086;-75
2022/04/21 00:06:30;;;;;;;119.50;108.80;;;12.20;50.40;;;;;;5133800;27;20139;-75
2022/04/21 00:08:57;;;;;;;116.90;106.43;;;12.10;50.30;;;;;;5134104;27;20063;-75
2022/04/21 00:11:24;;;;;;;116.65;106.30;;;12.10;50.40;;;;;;5134356;27;20127;-75
2022/04/21 00:13:51;;;;;;;115.97;105.50;;;12.10;50.50;;;;;;5133602;27;20803;-75
2022/04/21 00:16:18;;;;;;;116.18;105.88;;;12.10;50.60;;;;;;5133965;27;20052;-76
2022/04/21 00:18:46;;;;;;;116.40;106.00;;;12.10;50.60;;;;;;5134599;27;20044;-75
2022/04/21 00:21:14;;;;;;;117.13;106.40;;;12.00;50.60;;;;;;5133990;27;20520;-75
2022/04/21 00:23:40;;;;;;;114.60;104.35;;;12.00;50.70;;;;;;5134777;27;20043;-76
2022/04/21 00:26:07;;;;;;;;;;;12.00;50.80;;;;;;5136438;27;20515;-76
2022/04/21 00:28:34;;;;;;;115.03;104.70;;;11.90;50.20;;;;;;5134013;27;19947;-75
2022/04/21 00:31:03;;;;;;;116.55;106.10;;;11.90;50.80;;;;;;5133665;27;20083;-75
2022/04/21 00:33:31;;;;;;;117.75;107.35;;;11.90;51.00;;;;;;5135040;27;20068;-76
2022/04/21 00:35:58;;;;;;;115.80;105.45;;;11.80;51.20;;;;;;5134468;27;20553;-75
2022/04/21 00:38:26;;;;;;;115.40;105.03;;;11.70;51.30;;;;;;5134166;27;20055;-75
2022/04/21 00:40:53;;;;;;;114.95;104.60;;;11.70;51.60;;;;;;5134753;27;20133;-76
2022/04/21 00:43:21;;;;;;;115.85;105.07;;;11.70;51.70;;;;;;5134815;27;20839;-75
2022/04/21 00:45:49;;;;;;;116.13;105.57;;;11.60;51.80;;;;;;5133414;27;20485;-75
2022/04/21 00:48:16;;;;;;;116.05;105.57;;;11.60;52.00;;;;;;5133425;27;20051;-76
2022/04/21 00:50:43;;;;;;;116.00;105.60;;;11.60;52.20;;;;;;5133543;27;20051;-76
2022/04/21 00:53:10;;;;;;;119.07;108.45;;;11.50;52.30;;;;;;5134539;27;20126;-75
2022/04/21 00:55:40;;;;;;;115.65;105.05;;;11.50;52.70;;;;;;5133496;27;21040;-75
2022/04/21 00:58:09;;;;;;;116.22;105.57;;;11.50;53.00;;;;;;5133322;27;20051;-75
2022/04/21 01:00:36;;;;;;;115.50;104.90;;;11.40;53.20;;;;;;5134809;27;20055;-75
2022/04/21 01:03:04;;;;;;;116.13;105.72;;;11.40;53.20;;;;;;5133800;27;20536;-75
2022/04/21 01:05:33;;;;;;;115.55;105.15;;;11.40;53.30;;;;;;5134773;27;20047;-75
2022/04/21 01:08:01;;;;;;;115.00;104.68;;;11.40;53.40;;;;;;5133138;27;20056;-75
2022/04/21 01:10:30;;;;;;;114.97;104.47;;;11.40;53.50;;;;;;5150687;27;20127;-75
2022/04/21 01:12:59;;;;;;;116.10;105.65;;;11.40;53.60;;;;;;5133172;27;20096;-75
2022/04/21 01:15:27;;;;;;;119.20;108.63;;;11.40;53.70;;;;;;5133195;27;20063;-75
2022/04/21 01:17:54;;;;;;;115.15;104.82;;;11.40;54.30;;;;;;5132177;27;20047;-75
2022/04/21 01:20:23;;;;;;;115.78;105.57;;;11.40;54.10;;;;;;5133187;27;20051;-75
2022/04/21 01:22:51;;;;;;;115.45;105.15;;;11.40;54.50;;;;;;5132884;27;20043;-75
2022/04/21 01:25:19;;;;;;;115.00;104.70;;;11.30;54.40;;;;;;5133259;27;20056;-75
2022/04/21 01:27:47;;;;;;;115.00;104.80;;;11.40;54.60;;;;;;5153496;27;20126;-75
2022/04/21 01:30:15;;;;;;;114.70;104.20;;;11.30;54.90;;;;;;5136581;27;20047;-75
2022/04/21 01:32:42;;;;;;;114.82;104.53;;;11.30;55.00;;;;;;5137814;27;20048;-75
2022/04/21 01:35:11;;;;;;;114.75;104.35;;;11.30;55.10;;;;;;5137569;27;20485;-74
2022/04/21 01:43:08;;;;;;;115.90;105.30;;;11.20;55.50;;;;;;5136350;27;20036;-75
2022/04/21 01:45:36;;;;;;;114.53;104.10;;;11.20;55.70;;;;;;5136399;27;20126;-75
2022/04/21 01:48:03;;;;;;;114.55;104.25;;;11.20;56.00;;;;;;5137427;27;20515;-75
2022/04/21 01:50:31;;;;;;;114.78;104.38;;;11.20;56.20;;;;;;5137457;27;20051;-75
2022/04/21 01:53:00;;;;;;;116.05;105.55;;;11.20;56.50;;;;;;5136280;27;20052;-75
2022/04/21 01:55:27;;;;;;;114.47;103.95;;;11.10;56.70;;;;;;5136222;27;20056;-75
2022/04/21 01:57:54;;;;;;;115.90;105.25;;;11.10;56.80;;;;;;5135982;27;20052;-75
2022/04/21 02:00:21;;;;;;;116.15;105.18;;;11.10;56.80;;;;;;5136052;27;20496;-75
2022/04/21 02:02:48;;;;;;;115.90;105.20;;;11.10;57.10;;;;;;5135800;27;20050;-76
2022/04/21 02:05:16;;;;;;;115.85;105.35;;;11.10;57.20;;;;;;5135935;27;20075;-75
2022/04/21 02:07:44;;;;;;;116.03;105.63;;;11.00;57.40;;;;;;5136953;27;20056;-75
2022/04/21 02:10:13;;;;;;;115.68;105.05;;;11.00;57.60;;;;;;5137304;27;20463;-76
2022/04/21 02:12:41;;;;;;;115.20;104.80;;;11.00;57.70;;;;;;5136975;27;20126;-75
2022/04/21 02:15:09;;;;;;;114.93;104.53;;;10.90;57.70;;;;;;5136167;27;20051;-75
2022/04/21 02:17:36;;;;;;;115.78;105.07;;;10.90;57.90;;;;;;5139061;27;20056;-75
2022/04/21 02:20:06;;;;;;;116.15;105.28;;;10.90;58.30;;;;;;5135820;27;20088;-75
2022/04/21 02:22:34;;;;;;;116.88;106.20;;;10.80;58.30;;;;;;5152959;27;20062;-75
2022/04/21 02:25:02;;;;;;;117.28;106.47;;;10.80;58.60;;;;;;5135757;27;20052;-74
2022/04/21 02:27:30;;;;;;;115.65;105.15;;;10.80;58.90;;;;;;5136486;27;20051;-75
2022/04/21 02:29:57;;;;;;;116.07;105.60;;;10.70;59.10;;;;;;5135709;27;20127;-75
2022/04/21 02:32:24;;;;;;;115.82;105.40;;;10.60;59.20;;;;;;5136698;27;20043;-75
2022/04/21 02:34:53;;;;;;;116.25;105.35;;;10.60;59.40;;;;;;5136804;27;20089;-75
2022/04/21 02:37:20;;;;;;;116.32;105.82;;;10.50;59.60;;;;;;5136645;27;20062;-75
2022/04/21 02:39:47;;;;;;;115.72;105.20;;;10.40;60.00;;;;;;5135514;27;20432;-75
2022/04/21 02:42:14;;;;;;;116.78;106.07;;;10.40;60.20;;;;;;5136665;27;20039;-75
2022/04/21 02:44:42;;;;;;;116.53;105.60;;;10.40;60.20;;;;;;5136606;27;20457;-75
2022/04/21 02:47:10;;;;;;;118.38;107.60;;;10.40;60.40;;;;;;5152469;27;20048;-75
2022/04/21 02:49:37;;;;;;;115.85;105.13;;;10.40;60.90;;;;;;5136656;27;20418;-74
2022/04/21 02:52:05;;;;;;;116.68;105.95;;;10.30;61.10;;;;;;5134852;27;20083;-75
2022/04/21 02:57:23;;;;;;;118.40;107.30;;;10.20;61.60;;;;;;5136217;27;20115;-75
2022/04/21 02:59:53;;;;;;;116.03;105.35;;;10.20;61.90;;;;;;5136206;27;20045;-75
2022/04/21 03:02:20;;;;;;;115.60;104.80;;;10.00;62.20;;;;;;5136194;27;20131;-74
2022/04/21 03:04:47;;;;;;;115.50;104.90;;;10.00;62.60;;;;;;5135038;27;20204;-75
2022/04/21 03:07:15;;;;;;;116.63;106.03;;;10.00;62.90;;;;;;5134986;27;20047;-74
2022/04/21 03:09:42;;;;;;;114.93;104.43;;;10.00;63.20;;;;;;5136061;27;20352;-75
2022/04/21 03:12:11;;;;;;;118.70;108.00;;;10.00;63.30;;;;;;5135016;27;20122;-75
2022/04/21 03:14:38;;;;;;;116.57;105.68;;;10.00;63.40;;;;;;5134958;27;20046;-75
2022/04/21 03:17:08;;;;;;;119.82;108.85;;;10.00;63.60;;;;;;5134705;27;20130;-74
2022/04/21 03:19:36;;;;;;;117.45;106.75;;;10.00;63.60;;;;;;5136071;27;20050;-75
2022/04/21 03:24:48;;;;;;;114.65;103.65;;;10.00;64.00;;;;;;5134791;27;20071;-75
2022/04/21 03:27:15;;;;;;;115.68;105.05;;;10.00;63.80;;;;;;5135830;27;20544;-74
2022/04/21 03:29:43;;;;;;;116.32;105.35;;;10.00;64.00;;;;;;5136031;27;20189;-74
2022/04/21 03:32:13;;;;;;;116.15;105.60;;;10.00;64.20;;;;;;5134382;27;20046;-74
2022/04/21 03:34:42;;;;;;;115.38;104.88;;;10.00;64.30;;;;;;5134470;27;20043;-75
2022/04/21 03:37:09;;;;;;;115.15;104.78;;;9.90;64.30;;;;;;5133993;27;20083;-75
2022/04/21 03:39:37;;;;;;;115.72;104.80;;;9.90;64.30;;;;;;5135388;27;20051;-75
2022/04/21 03:42:05;;;;;;;114.32;103.93;;;9.80;64.40;;;;;;5135287;27;20040;-74
2022/04/21 03:44:32;;;;;;;116.43;105.72;;;9.80;64.70;;;;;;5134361;27;20078;-74
2022/04/21 03:46:59;;;;;;;116.15;105.32;;;9.80;64.90;;;;;;5133779;27;20051;-74
2022/04/21 03:49:30;;;;;;;116.05;105.38;;;9.80;65.10;;;;;;5133643;27;20489;-74
2022/04/21 03:51:57;;;;;;;116.15;105.55;;;9.80;65.40;;;;;;5135464;27;20048;-74
2022/04/21 03:54:26;;;;;;;116.50;105.65;;;9.70;65.50;;;;;;5151275;27;20560;-75
2022/04/21 03:56:54;;;;;;;116.72;105.93;;;9.70;65.90;;;;;;5135335;27;20052;-75
2022/04/21 03:59:23;;;;;;;115.28;104.65;;;9.60;66.00;;;;;;5134228;27;20063;-75
2022/04/21 04:01:50;;;;;;;118.10;107.03;;;9.60;66.20;;;;;;5116580;27;20055;-74
2022/04/21 04:04:17;;;;;;;115.78;105.03;;;9.50;66.40;;;;;;5135265;27;20063;-74
2022/04/21 04:12:15;;;;;;;115.32;104.72;;;9.50;66.70;;;;;;5134168;27;20044;-75
2022/04/21 04:14:42;;;;;;;117.60;106.85;;;9.50;66.70;;;;;;5134916;27;20444;-75
2022/04/21 04:17:10;;;;;;;119.00;108.13;;;9.50;67.10;;;;;;5134381;27;20052;-75
2022/04/21 04:19:37;;;;;;;115.30;104.70;;;9.50;67.20;;;;;;5134840;27;20060;-74
2022/04/21 04:22:06;;;;;;;117.53;106.53;;;9.50;67.20;;;;;;5133428;27;20051;-75
2022/04/21 04:24:33;;;;;;;116.03;105.20;;;9.60;67.20;;;;;;5134818;27;20052;-75
2022/04/21 04:27:00;;;;;;;116.53;105.68;;;9.60;67.50;;;;;;5134739;27;20055;-75
2022/04/21 04:29:27;;;;;;;115.85;104.93;;;9.60;67.70;;;;;;5133464;27;20044;-75
2022/04/21 04:31:57;;;;;;;115.82;105.15;;;9.50;67.90;;;;;;5134812;27;20126;-75
2022/04/21 04:34:24;;;;;;;116.50;105.63;;;9.60;68.00;;;;;;5150869;27;20389;-75
2022/04/21 04:36:51;;;;;;;117.50;106.60;;;9.50;68.00;;;;;;5134914;27;20101;-74
2022/04/21 04:39:19;;;;;;;115.97;105.10;;;9.50;68.10;;;;;;5133352;27;20039;-74
2022/04/21 04:44:31;;;;;;;184.32;109.47;;;9.50;68.50;;;;;;5133589;27;20055;-74
2022/04/21 04:46:57;;;;;;;165.50;107.18;;;9.50;68.40;;;;;;5133172;27;20036;-74
2022/04/21 04:49:24;;;;;;;148.53;106.63;;;9.50;68.40;;;;;;5116520;27;20047;-75
2022/04/21 04:51:51;;;;;;;115.80;103.43;;;9.40;68.60;;;;;;5134534;27;20687;-75
2022/04/21 04:54:20;;;;;;;117.10;105.68;;;9.40;69.10;;;;;;5133433;27;20421;-74
2022/04/21 04:56:48;;;;;;;115.55;104.18;;;9.30;69.30;;;;;;5134798;27;20051;-74
2022/04/21 04:59:15;;;;;;;116.57;105.75;;;9.30;69.60;;;;;;5116512;27;20051;-74
2022/04/21 05:01:45;;;;;;;118.53;107.57;;;9.30;69.90;;;;;;5137330;27;20050;-75
2022/04/21 05:04:14;;;;;;;115.40;104.55;;;9.30;70.00;;;;;;5138106;27;20051;-74
2022/04/21 05:06:42;;;;;;;115.03;104.20;;;9.30;70.40;;;;;;5138108;27;20052;-74
2022/04/21 05:09:11;;;;;;;117.32;106.38;;;9.30;70.50;;;;;;5137730;27;20052;-75
2022/04/21 05:11:41;;;;;;;117.40;106.70;;;9.20;70.80;;;;;;5119581;27;20071;-75
2022/04/21 05:14:08;;;;;;;114.55;103.75;;;9.30;70.90;;;;;;5137700;27;20048;-75
2022/04/21 05:16:37;;;;;;;115.18;104.43;;;9.20;71.20;;;;;;5143578;27;20523;-76
2022/04/21 05:19:05;;;;;;;135.38;107.38;;;9.20;71.40;;;;;;5150816;27;20501;-75
2022/04/21 05:21:42;;;;;;;115.82;103.63;;;9.20;71.80;;;;;;5157876;27;20047;-75
2022/04/21 05:24:11;;;;;;;117.07;106.07;;;9.20;72.20;;;;;;5036168;28;20064;-75
2022/04/21 05:26:40;;;;;;;113.75;102.90;;;9.10;72.40;;;;;;5056225;28;20388;-75
2022/04/21 05:31:50;;;;;;;117.82;106.40;;;9.10;73.60;;;;;;5036582;28;20042;-75
2022/04/21 05:34:17;;;;;;;116.07;105.05;;;9.10;73.80;;;;;;5055790;28;20115;-75
2022/04/21 05:36:45;;;;;;;116.63;105.45;;;9.10;74.00;;;;;;5037688;28;20138;-75
2022/04/21 05:39:12;;;;;;;115.72;104.82;;;9.10;74.50;;;;;;5037148;28;20849;-75
2022/04/21 05:41:43;;;;;;;115.00;104.13;;;9.10;75.00;;;;;;5037871;28;20041;-75
2022/04/21 05:44:11;;;;;;;118.03;106.35;;;9.20;75.70;;;;;;5038130;28;20058;-75
2022/04/21 05:46:38;;;;;;;175.48;109.57;;;9.20;75.70;;;;;;5055346;28;20716;-75
2022/04/21 05:49:06;;;;;;;117.22;104.90;;;9.20;75.80;;;;;;5054159;28;20060;-75
2022/04/21 05:51:34;;;;;;;119.47;106.82;;;9.20;76.50;;;;;;5055906;28;20050;-75
2022/04/21 05:54:05;;;;;;;117.97;106.13;;;9.20;77.00;;;;;;5054595;28;20053;-75
2022/04/21 05:56:32;;;;;;;116.05;105.25;;;9.20;77.40;;;;;;5053858;28;20068;-75
2022/04/21 05:59:01;;;;;;;115.25;104.53;;;9.20;77.40;;;;;;5036303;28;20052;-77
2022/04/21 06:01:28;;;;;;;117.38;106.47;;;9.30;77.50;;;;;;5036728;28;20053;-77
2022/04/21 06:03:55;;;;;;;119.07;108.15;;;9.30;78.00;;;;;;5019294;28;20184;-77
2022/04/21 06:06:22;;;;;;;116.72;105.80;;;9.30;78.40;;;;;;5035329;28;20514;-77
2022/04/21 06:08:49;;;;;;;125.50;113.95;;;9.30;79.50;;;;;;5034529;28;20814;-77
2022/04/21 06:11:24;;;;;;;116.97;105.30;;;9.30;79.70;;;;;;5036772;28;20064;-77
2022/04/21 06:13:51;;;;;;;117.93;106.80;;;9.40;79.70;;;;;;5036026;28;20149;-77
2022/04/21 06:16:20;;;;;;;117.50;106.70;;;9.40;80.00;;;;;;5035583;28;20593;-78
2022/04/21 06:18:47;;;;;;;114.72;104.03;;;9.40;80.20;;;;;;5036552;28;20133;-77
2022/04/21 06:21:14;;;;;;;116.78;105.75;;;9.40;80.40;;;;;;5020583;28;20045;-77
2022/04/21 06:23:40;;;;;;;116.38;105.80;;;9.40;80.60;;;;;;5037363;28;20132;-77
2022/04/21 06:26:08;;;;;;;115.55;104.93;;;9.50;80.60;;;;;;5037572;28;20601;-79
2022/04/21 06:28:35;;;;;;;123.78;112.90;;;9.50;80.50;;;;;;5054091;28;20514;-77
2022/04/21 06:31:02;;;;;;;122.13;110.72;;;9.60;80.80;;;;;;5037477;28;20101;-76
2022/04/21 06:33:32;;;;;;;116.50;105.68;;;9.60;80.80;;;;;;5037194;28;20045;-78
2022/04/21 06:36:02;;;;;;;114.90;103.95;;;9.60;80.70;;;;;;5055107;28;20538;-79
2022/04/21 06:38:29;;;;;;;112.63;102.30;;;9.70;80.20;;;;;;5037371;28;20083;-78
2022/04/21 06:40:56;;;;;;;114.32;103.72;;;9.70;80.30;;;;;;5053549;28;20056;-76
2022/04/21 06:48:53;;;;;;;111.50;101.13;;;9.90;79.90;;;;;;5036313;28;20580;-75
2022/04/21 06:51:20;;;;;;;112.60;102.03;;;9.90;79.70;;;;;;5036215;28;20046;-73
2022/04/21 06:53:48;;;;;;;114.97;104.50;;;9.90;79.40;;;;;;5036525;28;20404;-75
2022/04/21 06:56:15;;;;;;;112.68;102.28;;;10.00;79.30;;;;;;5035461;28;20641;-73
2022/04/21 06:58:42;;;;;;;114.15;103.85;;;10.00;79.20;;;;;;5053405;28;20052;-74
2022/04/21 07:01:09;;;;;;;162.40;112.03;;;10.10;79.10;;;;;;5037367;28;20042;-75
2022/04/21 07:03:36;;;;;;;112.18;101.95;;;10.10;79.10;;;;;;5018183;28;20053;-74
2022/04/21 07:06:04;;;;;;;122.93;112.35;;;10.20;78.50;;;;;;5035389;28;20045;-74
2022/04/21 07:08:31;;;;;;;112.05;101.85;;;10.30;78.10;;;;;;5029789;28;20054;-74
2022/04/21 07:10:58;;;;;;;113.35;102.90;;;10.30;77.90;;;;;;5029076;28;20046;-74
2022/04/21 07:13:25;;;;;;;112.80;102.47;;;10.40;77.00;;;;;;5034650;28;20041;-74
2022/04/21 07:15:54;;;;;;;114.20;103.72;;;10.50;76.70;;;;;;5051668;28;20144;-74
2022/04/21 07:18:20;;;;;;;111.53;101.40;;;10.50;76.60;;;;;;5052780;28;20069;-74
2022/04/21 07:20:47;;;;;;;112.13;101.85;;;10.60;76.20;;;;;;5035955;28;20054;-74
2022/04/21 07:23:16;;;;;;;112.18;102.07;;;10.60;75.80;;;;;;5052226;28;20507;-74
2022/04/21 07:25:43;;;;;;;110.70;100.45;;;10.70;74.80;;;;;;5036029;28;20046;-74
2022/04/21 07:28:10;;;;;;;110.03;99.95;;;10.70;74.60;;;;;;5035958;28;20045;-74
2022/04/21 07:30:37;;;;;;;111.10;100.95;;;10.80;74.40;;;;;;5036072;28;20549;-74
2022/04/21 07:33:04;;;;;;;112.68;102.78;;;10.90;73.90;;;;;;5036263;28;20041;-74
2022/04/21 07:35:32;;;;;;;108.90;98.88;;;11.00;73.80;;;;;;5019250;28;20045;-74
2022/04/21 07:37:59;;;;;;;111.22;101.03;;;11.00;73.50;;;;;;5038983;28;20049;-74
2022/04/21 07:40:28;;;;;;;108.68;98.60;;;11.10;73.30;;;;;;5036224;28;20627;-74
2022/04/21 07:42:55;;;;;;;113.10;103.20;;;11.20;72.90;;;;;;5035493;28;21011;-74
2022/04/21 07:45:22;;;;;;;109.15;99.28;;;11.30;72.10;;;;;;5017905;28;20054;-74
2022/04/21 07:47:49;;;;;;;109.28;99.40;;;11.30;72.10;;;;;;5015921;28;20479;-74
2022/04/21 07:50:16;;;;;;;112.60;102.35;;;11.40;72.30;;;;;;5008357;28;20072;-74
2022/04/21 07:55:30;;;;;;;110.65;100.75;;;11.50;71.40;;;;;;5035395;28;20060;-74
2022/04/21 07:57:57;;;;;;;108.80;99.00;;;11.60;71.60;;;;;;5052694;28;20156;-74
2022/04/21 08:00:25;;;;;;;111.82;101.45;;;11.60;70.90;;;;;;5051274;28;20644;-74
2022/04/21 08:02:52;;;;;;;109.47;99.50;;;11.70;70.80;;;;;;5052842;28;20115;-74
2022/04/21 08:05:20;;;;;;;110.40;100.43;;;11.80;70.30;;;;;;5051365;28;20062;-74
2022/04/21 08:07:48;;;;;;;110.57;100.63;;;11.90;69.80;;;;;;5030860;28;20056;-74
2022/04/21 08:10:16;;;;;;;111.47;101.57;;;11.90;69.30;;;;;;5034320;28;20056;-74
2022/04/21 08:12:45;;;;;;;109.88;99.97;;;12.00;69.40;;;;;;5034539;28;20049;-74
2022/04/21 08:15:14;;;;;;;110.10;100.50;;;12.10;69.60;;;;;;5032858;28;20586;-74
2022/04/21 08:17:41;;;;;;;111.60;101.78;;;12.20;68.80;;;;;;5033976;28;20050;-74
2022/04/21 08:20:09;;;;;;;110.38;100.63;;;12.20;68.60;;;;;;5034991;28;20045;-74
2022/04/21 08:22:36;;;;;;;112.65;102.78;;;12.30;68.30;;;;;;5018044;28;20049;-74
2022/04/21 08:33:23;;;;;;;108.10;98.32;;;12.70;67.20;;;;;;5035563;28;20075;-76
2022/04/21 08:35:50;;;;;;;152.23;101.40;;;12.70;67.00;;;;;;5055226;28;20125;-77
2022/04/21 08:38:18;;;;;;;110.53;100.93;;;12.80;66.60;;;;;;5038055;28;21619;-74
2022/04/21 08:40:51;;;;;;;114.93;104.93;;;12.80;66.40;;;;;;5052562;28;20056;-75
2022/04/21 08:43:19;;;;;;;114.88;104.78;;;12.90;67.10;;;;;;5056485;28;20178;-74
2022/04/21 08:45:47;;;;;;;112.72;102.50;;;13.00;66.90;;;;;;5056953;28;20057;-74
2022/04/21 08:48:16;;;;;;;111.90;102.07;;;13.10;67.30;;;;;;5038350;28;20789;-73
2022/04/21 08:50:43;;;;;;;111.20;100.93;;;13.20;66.70;;;;;;5055376;28;20129;-74
2022/04/21 08:53:11;;;;;;;110.32;100.57;;;13.30;65.90;;;;;;5056811;28;20056;-74
2022/04/21 08:55:40;;;;;;;242.93;113.35;;;13.30;65.60;;;;;;5037001;28;20052;-74
2022/04/21 08:58:07;;;;;;;116.82;102.10;;;13.40;64.90;;;;;;5055288;28;20050;-75
2022/04/21 09:00:35;;;;;;;112.32;102.53;;;13.50;64.30;;;;;;5037253;28;20048;-74
2022/04/21 09:03:05;;;;;;;112.28;101.78;;;13.60;65.00;;;;;;5037430;28;20416;-75
2022/04/21 09:05:33;;;;;;;113.07;101.15;;;13.70;64.20;;;;;;5035410;28;20077;-74
2022/04/21 09:08:00;;;;;;;117.78;106.05;;;13.70;63.80;;;;;;5037290;28;20045;-73
2022/04/21 09:10:29;;;;;;;111.90;101.85;;;13.80;63.70;;;;;;5037589;28;20049;-73
2022/04/21 09:12:57;;;;;;;111.88;102.30;;;13.90;63.90;;;;;;5034565;28;20046;-74
2022/04/21 09:15:26;;;;;;;173.98;104.78;;;13.90;63.60;;;;;;5037081;28;20061;-74
2022/04/21 09:17:57;;;;;;;113.25;103.20;;;14.00;63.80;;;;;;5036977;28;20054;-75
2022/04/21 09:20:25;;;;;;;112.43;102.50;;;14.10;63.50;;;;;;5037172;28;20068;-75
2022/04/21 09:22:55;;;;;;;112.22;102.47;;;14.10;63.60;;;;;;5054768;28;20057;-75
2022/04/21 09:25:26;;;;;;;114.43;103.93;;;14.20;63.10;;;;;;5036679;28;20085;-75
2022/04/21 09:27:54;;;;;;;113.35;103.65;;;14.20;63.30;;;;;;5036312;28;20053;-74
2022/04/21 09:30:21;;;;;;;119.45;104.95;;;14.30;63.00;;;;;;5052939;28;20049;-74
2022/04/21 09:32:54;;;;;;;112.35;102.82;;;14.40;62.70;;;;;;5037438;28;20519;-72
2022/04/21 09:35:23;;;;;;;177.07;107.15;;;14.50;62.90;;;;;;5037115;28;20049;-74
2022/04/21 09:37:52;;;;;;;111.10;101.60;;;14.50;62.70;;;;;;5037043;28;20498;-73
2022/04/21 09:40:20;;;;;;;114.22;104.63;;;14.60;62.40;;;;;;5053415;28;20080;-76
2022/04/21 09:42:58;;;;;;;119.30;106.88;;;14.60;61.60;;;;;;5053594;28;20537;-76
2022/04/21 09:48:23;;;;;;;110.30;100.68;;;14.70;60.80;;;;;;5036803;28;20176;-76
2022/04/21 09:50:53;;;;;;;116.95;105.60;;;14.80;60.30;;;;;;5037256;28;20045;-76
2022/04/21 09:53:23;;;;;;;113.95;103.75;;;14.90;60.00;;;;;;5049270;28;20104;-76
2022/04/21 09:55:51;;;;;;;116.97;106.18;;;14.90;59.90;;;;;;5017659;28;20054;-76
2022/04/21 09:58:19;;;;;;;114.35;104.53;;;15.00;59.40;;;;;;5041135;28;20081;-76
2022/04/21 10:00:46;;;;;;;115.53;105.07;;;15.10;58.40;;;;;;5036086;28;20037;-76
2022/04/21 10:03:14;;;;;;;117.10;107.07;;;15.10;58.40;;;;;;5036589;28;20046;-76
2022/04/21 10:05:42;;;;;;;115.07;105.47;;;15.10;58.40;;;;;;5035782;28;20053;-76
2022/04/21 10:08:12;;;;;;;112.97;103.18;;;15.20;57.80;;;;;;5036228;28;20402;-76
2022/04/21 10:10:40;;;;;;;115.32;105.63;;;15.30;57.40;;;;;;5035015;28;20107;-76
2022/04/21 10:13:08;;;;;;;116.05;106.45;;;15.30;58.10;;;;;;5035655;28;20061;-76
2022/04/21 10:15:35;;;;;;;116.88;107.03;;;15.30;58.30;;;;;;5036113;28;20045;-76
2022/04/21 10:18:06;;;;;;;117.95;108.25;;;15.40;58.40;;;;;;5052251;28;20053;-76
2022/04/21 10:20:33;;;;;;;114.80;105.20;;;15.50;57.80;;;;;;5053119;28;20042;-76
2022/04/21 10:23:02;;;;;;;117.60;107.90;;;15.60;56.90;;;;;;5036444;28;20515;-76
2022/04/21 10:25:37;;;;;;;116.57;106.88;;;15.60;57.20;;;;;;5053649;28;20080;-76
2022/04/21 10:28:35;;;;;;;114.88;105.35;;;15.70;57.10;;;;;;5036197;28;20428;-76
2022/04/21 10:31:30;;;;;;;116.65;107.00;;;15.80;56.70;;;;;;5035865;28;20557;-76
2022/04/21 10:33:58;;;;;;;116.33;106.30;;;15.80;56.30;;;;;;5035736;28;20052;-76
2022/04/21 10:36:41;;;;;;;117.65;107.70;;;15.90;55.70;;;;;;5035764;28;20504;-77
2022/04/21 10:39:26;;;;;;;119.05;109.43;;;15.90;55.20;;;;;;5033841;28;20057;-81
2022/04/21 10:42:28;;;;;;;114.38;104.78;;;16.00;56.40;;;;;;5036445;28;20054;-81
2022/04/21 10:44:56;;;;;;;115.80;106.20;;;16.10;55.10;;;;;;5035595;28;20531;-80
2022/04/21 10:47:44;;;;;;;116.28;106.68;;;16.10;55.60;;;;;;5035757;28;20087;-80
2022/04/21 10:50:17;;;;;;;121.18;111.18;;;16.20;55.90;;;;;;5036276;28;20527;-80
2022/04/21 10:58:51;;;;;;;119.13;109.40;;;16.40;55.20;;;;;;5044944;28;20076;-77
2022/04/21 11:01:31;;;;;;;120.97;111.25;;;16.50;55.10;;;;;;5035714;28;20057;-77
2022/04/21 11:04:20;;;;;;;120.78;111.10;;;16.60;54.30;;;;;;5050724;28;20129;-77
2022/04/21 11:06:49;;;;;;;122.13;112.32;;;16.60;54.60;;;;;;5050263;28;20041;-78
2022/04/21 11:09:36;;;;;;;119.90;110.20;;;16.70;54.40;;;;;;5053225;28;20472;-82
2022/04/21 11:12:04;;;;;;;118.97;108.72;;;16.80;54.30;;;;;;5016060;28;20061;-82
2022/04/21 11:14:33;;;;;;;117.30;107.43;;;16.80;53.70;;;;;;5032188;28;20551;-82
2022/04/21 11:17:01;;;;;;;122.18;111.95;;;16.90;53.60;;;;;;5022559;28;20057;-81
2022/04/21 11:19:37;;;;;;;120.75;110.97;;;16.90;53.40;;;;;;5035842;28;20053;-81
2022/04/21 11:22:07;;;;;;;124.45;113.82;;;17.00;53.60;;;;;;5019148;28;20467;-80
2022/04/21 11:25:02;;;;;;;120.57;110.57;;;17.00;53.40;;;;;;5035611;28;20132;-81
2022/04/21 11:27:31;;;;;;;120.53;109.60;;;17.10;53.40;;;;;;5033657;28;20046;-82
2022/04/21 11:30:06;;;;;;;190.13;115.65;;;17.10;53.30;;;;;;5018833;28;20046;-82
2022/04/21 11:32:34;;;;;;;119.68;109.97;;;17.20;52.30;;;;;;5035299;28;20057;-82
2022/04/21 11:35:04;;;;;;;118.80;108.80;;;17.20;52.00;;;;;;5035385;28;20046;-83
2022/04/21 11:37:57;;;;;;;239.15;115.75;;;17.30;51.90;;;;;;5051592;28;20381;-78
2022/04/21 11:40:26;;;;;;;119.90;109.97;;;17.30;51.50;;;;;;5017870;28;20464;-80
2022/04/21 11:42:55;;;;;;;119.00;109.53;;;17.40;51.30;;;;;;5034467;28;20061;-79
2022/04/21 11:45:24;;;;;;;118.85;109.30;;;17.40;51.20;;;;;;5034791;28;20053;-78
2022/04/21 11:47:52;;;;;;;119.38;109.97;;;17.40;51.70;;;;;;5034151;28;20081;-80
2022/04/21 11:50:20;;;;;;;120.88;110.93;;;17.50;50.90;;;;;;5051650;28;20061;-80
2022/04/21 11:52:52;;;;;;;121.45;112.00;;;17.60;50.90;;;;;;5034370;28;20132;-78
2022/04/21 11:55:23;;;;;;;120.38;111.00;;;17.60;51.10;;;;;;5035308;28;20081;-79
2022/04/21 11:57:50;;;;;;;121.38;111.45;;;17.70;51.20;;;;;;5035149;28;20131;-80
2022/04/21 12:06:27;;;;;;;120.03;109.95;;;17.80;51.30;;;;;;5035473;28;20061;-79
2022/04/21 12:08:44;;;;;;;120.80;110.88;;;18.00;50.90;;;;;;5017994;28;20049;-80
2022/04/21 12:11:13;;;;;;;123.90;114.10;;;18.00;50.50;;;;;;5034963;28;20053;-80
2022/04/21 12:13:42;;;;;;;120.43;110.50;;;18.20;50.70;;;;;;5035226;28;20054;-81
2022/04/21 12:16:37;;;;;;;123.88;114.07;;;18.20;50.40;;;;;;5034415;28;20045;-80
2022/04/21 12:19:13;;;;;;;120.65;111.15;;;18.20;50.70;;;;;;5034518;28;20088;-79
2022/04/21 12:21:40;;;;;;;122.78;112.53;;;18.30;49.20;;;;;;5018232;28;20555;-79
2022/04/21 12:24:15;;;;;;;123.82;113.40;;;18.30;49.70;;;;;;5034804;28;20053;-79
2022/04/21 12:26:52;;;;;;;123.38;113.63;;;18.40;50.50;;;;;;5052589;28;20057;-80
2022/04/21 12:29:20;;;;;;;123.05;113.13;;;18.40;49.90;;;;;;5034429;28;20135;-80
2022/04/21 12:31:49;;;;;;;127.32;113.97;;;18.40;50.20;;;;;;5034828;28;20049;-82
2022/04/21 12:34:26;;;;;;;121.97;111.55;;;18.50;50.20;;;;;;5034692;28;20056;-82
2022/04/21 12:36:55;;;;;;;124.13;113.30;;;18.50;49.90;;;;;;5017988;28;20053;-81
2022/04/21 12:39:22;;;;;;;124.00;113.70;;;18.60;48.90;;;;;;5034546;28;20154;-81
2022/04/21 12:41:51;;;;;;;122.32;112.85;;;18.70;49.00;;;;;;5034628;28;20080;-81
2022/04/21 12:44:22;;;;;;;123.75;114.15;;;18.80;49.20;;;;;;5051272;28;20050;-78
2022/04/21 12:47:04;;;;;;;123.70;114.10;;;18.90;49.60;;;;;;5034628;28;20056;-80
2022/04/21 12:49:51;;;;;;;122.63;112.60;;;19.00;50.90;;;;;;5051233;28;20507;-80
2022/04/21 12:52:28;;;;;;;123.72;113.70;;;19.00;49.10;;;;;;5033141;28;20140;-79
2022/04/21 12:54:55;;;;;;;122.80;113.20;;;19.10;49.80;;;;;;5033863;28;20140;-74
2022/04/21 12:57:23;;;;;;;125.03;114.63;;;19.20;49.80;;;;;;5033825;28;20168;-74
2022/04/21 12:59:50;;;;;;;123.60;114.10;;;19.20;49.30;;;;;;5034605;28;20507;-74
2022/04/21 13:02:18;;;;;;;122.68;113.38;;;19.20;48.70;;;;;;5034356;28;20128;-75
2022/04/21 13:04:44;;;;;;;124.22;114.35;;;19.20;49.10;;;;;;5033584;28;20479;-74
2022/04/21 13:07:13;;;;;;;122.22;112.38;;;19.30;48.90;;;;;;5033820;28;20559;-74
2022/04/21 13:09:40;;;;;;;124.45;113.88;;;19.30;48.50;;;;;;5033935;28;20057;-74
2022/04/21 13:12:08;;;;;;;121.47;111.95;;;19.40;48.80;;;;;;5052360;28;20149;-75
2022/04/21 13:14:36;;;;;;;123.85;114.45;;;19.40;48.60;;;;;;5034083;28;20052;-74